sensor_id;sensor_type;location;lat;lon;timestamp;temperature;humidity
8824;DHT22;4448;50.904;4.694;2022-10-26T00:02:23;13.70;99.90
8824;DHT22;4448;50.904;4.694;2022-10-26T00:04:49;14.00;99.90
8824;DHT22;4448;50.904;4.694;2022-10-26T00:07:15;13.80;99.90
8824;DHT22;4448;50.904;4.694;2022-10-26T00:09:40;13.90;99.90
8824;DHT22;4448;50.904;4.694;2022-10-26T00:12:06;13.80;99.90
8824;DHT22;4448;50.904;4.694;2022-10-26T00:14:32;13.90;99.90
8824;DHT22;4448;50.904;4.694;2022-10-26T00:16:57;13.90;99.90
8824;DHT22;4448;50.904;4.694;2022-10-26T00:19:23;13.90;99.90
8824;DHT22;4448;50.904;4.694;2022-10-26T00:21:49;13.90;99.90
8824;DHT22;4448;50.904;4.694;2022-10-26T00:24:14;13.80;99.90
8824;DHT22;4448;50.904;4.694;2022-10-26T00:26:40;14.20;99.90
8824;DHT22;4448;50.904;4.694;2022-10-26T00:29:06;13.90;99.90
8824;DHT22;4448;50.904;4.694;2022-10-26T00:31:32;14.00;99.90
8824;DHT22;4448;50.904;4.694;2022-10-26T00:33:58;13.90;99.90
8824;DHT22;4448;50.904;4.694;2022-10-26T00:36:24;13.90;99.90
8824;DHT22;4448;50.904;4.694;2022-10-26T00:38:52;13.80;99.90
8824;DHT22;4448;50.904;4.694;2022-10-26T00:41:24;14.10;99.90
8824;DHT22;4448;50.904;4.694;2022-10-26T00:43:50;14.00;99.90
8824;DHT22;4448;50.904;4.694;2022-10-26T00:48:52;14.20;99.90
8824;DHT22;4448;50.904;4.694;2022-10-26T00:51:22;14.10;99.90
8824;DHT22;4448;50.904;4.694;2022-10-26T00:53:48;14.00;99.90
8824;DHT22;4448;50.904;4.694;2022-10-26T00:56:15;14.00;99.90
8824;DHT22;4448;50.904;4.694;2022-10-26T00:58:41;14.30;99.90
8824;DHT22;4448;50.904;4.694;2022-10-26T01:01:07;14.00;99.90
8824;DHT22;4448;50.904;4.694;2022-10-26T01:03:35;14.30;99.90
8824;DHT22;4448;50.904;4.694;2022-10-26T01:06:02;14.00;99.90
8824;DHT22;4448;50.904;4.694;2022-10-26T01:08:28;14.00;99.90
8824;DHT22;4448;50.904;4.694;2022-10-26T01:10:56;13.90;99.90
8824;DHT22;4448;50.904;4.694;2022-10-26T01:13:24;14.00;99.90
8824;DHT22;4448;50.904;4.694;2022-10-26T01:29:42;13.70;99.90
8824;DHT22;4448;50.904;4.694;2022-10-26T01:32:29;14.30;99.90
8824;DHT22;4448;50.904;4.694;2022-10-26T01:35:22;14.10;99.90
8824;DHT22;4448;50.904;4.694;2022-10-26T01:40:33;14.20;99.90
8824;DHT22;4448;50.904;4.694;2022-10-26T01:43:04;14.10;99.90
8824;DHT22;4448;50.904;4.694;2022-10-26T01:45:32;14.10;99.90
8824;DHT22;4448;50.904;4.694;2022-10-26T01:47:59;14.00;99.90
8824;DHT22;4448;50.904;4.694;2022-10-26T01:50:26;14.10;99.90
8824;DHT22;4448;50.904;4.694;2022-10-26T01:52:53;14.00;99.90
8824;DHT22;4448;50.904;4.694;2022-10-26T01:55:52;14.20;99.90
8824;DHT22;4448;50.904;4.694;2022-10-26T02:04:12;13.90;99.90
8824;DHT22;4448;50.904;4.694;2022-10-26T02:07:06;13.90;99.90
8824;DHT22;4448;50.904;4.694;2022-10-26T02:09:45;14.00;99.90
8824;DHT22;4448;50.904;4.694;2022-10-26T02:15:10;14.10;99.90
8824;DHT22;4448;50.904;4.694;2022-10-26T02:17:58;14.10;99.90
8824;DHT22;4448;50.904;4.694;2022-10-26T02:20:37;14.10;99.90
8824;DHT22;4448;50.904;4.694;2022-10-26T02:23:06;14.10;99.90
8824;DHT22;4448;50.904;4.694;2022-10-26T02:25:34;14.10;99.90
8824;DHT22;4448;50.904;4.694;2022-10-26T02:28:10;14.20;99.90
8824;DHT22;4448;50.904;4.694;2022-10-26T02:30:37;14.00;99.90
8824;DHT22;4448;50.904;4.694;2022-10-26T02:33:04;14.10;99.90
8824;DHT22;4448;50.904;4.694;2022-10-26T02:35:35;14.10;99.90
8824;DHT22;4448;50.904;4.694;2022-10-26T02:38:05;14.30;99.90
8824;DHT22;4448;50.904;4.694;2022-10-26T02:40:33;14.00;99.90
8824;DHT22;4448;50.904;4.694;2022-10-26T02:43:04;14.20;99.90
8824;DHT22;4448;50.904;4.694;2022-10-26T02:45:35;14.30;99.90
8824;DHT22;4448;50.904;4.694;2022-10-26T02:48:03;14.30;99.90
8824;DHT22;4448;50.904;4.694;2022-10-26T02:50:46;14.20;99.90
8824;DHT22;4448;50.904;4.694;2022-10-26T02:53:30;14.10;99.90
8824;DHT22;4448;50.904;4.694;2022-10-26T02:55:58;14.20;99.90
8824;DHT22;4448;50.904;4.694;2022-10-26T02:58:28;14.20;99.90
8824;DHT22;4448;50.904;4.694;2022-10-26T03:00:56;14.30;99.90
8824;DHT22;4448;50.904;4.694;2022-10-26T03:03:22;14.30;99.90
8824;DHT22;4448;50.904;4.694;2022-10-26T03:05:48;14.20;99.90
8824;DHT22;4448;50.904;4.694;2022-10-26T03:08:13;14.20;99.90
8824;DHT22;4448;50.904;4.694;2022-10-26T03:10:43;14.30;99.90
8824;DHT22;4448;50.904;4.694;2022-10-26T03:13:11;14.20;99.90
8824;DHT22;4448;50.904;4.694;2022-10-26T03:15:37;14.30;99.90
8824;DHT22;4448;50.904;4.694;2022-10-26T03:18:04;14.30;99.90
8824;DHT22;4448;50.904;4.694;2022-10-26T03:20:30;14.40;99.90
8824;DHT22;4448;50.904;4.694;2022-10-26T03:22:55;14.40;99.90
8824;DHT22;4448;50.904;4.694;2022-10-26T03:25:22;14.50;99.90
8824;DHT22;4448;50.904;4.694;2022-10-26T03:27:56;14.40;99.90
8824;DHT22;4448;50.904;4.694;2022-10-26T03:30:22;14.50;99.90
8824;DHT22;4448;50.904;4.694;2022-10-26T03:32:47;14.60;99.90
8824;DHT22;4448;50.904;4.694;2022-10-26T03:35:13;14.60;99.90
8824;DHT22;4448;50.904;4.694;2022-10-26T03:37:39;14.60;99.90
8824;DHT22;4448;50.904;4.694;2022-10-26T03:40:05;14.90;99.90
8824;DHT22;4448;50.904;4.694;2022-10-26T03:42:37;14.70;99.90
8824;DHT22;4448;50.904;4.694;2022-10-26T03:45:04;14.90;99.90
8824;DHT22;4448;50.904;4.694;2022-10-26T03:47:30;14.80;99.90
8824;DHT22;4448;50.904;4.694;2022-10-26T03:49:55;14.80;99.90
8824;DHT22;4448;50.904;4.694;2022-10-26T03:52:21;14.80;99.90
8824;DHT22;4448;50.904;4.694;2022-10-26T03:54:48;15.00;99.90
8824;DHT22;4448;50.904;4.694;2022-10-26T03:57:14;14.90;99.90
8824;DHT22;4448;50.904;4.694;2022-10-26T03:59:39;14.90;99.90
8824;DHT22;4448;50.904;4.694;2022-10-26T04:02:05;15.00;99.90
8824;DHT22;4448;50.904;4.694;2022-10-26T04:04:31;15.30;99.90
8824;DHT22;4448;50.904;4.694;2022-10-26T04:06:57;15.40;99.90
8824;DHT22;4448;50.904;4.694;2022-10-26T04:09:23;15.10;99.90
8824;DHT22;4448;50.904;4.694;2022-10-26T04:11:48;15.00;99.90
8824;DHT22;4448;50.904;4.694;2022-10-26T04:14:14;15.20;99.90
8824;DHT22;4448;50.904;4.694;2022-10-26T04:16:39;15.40;99.90
8824;DHT22;4448;50.904;4.694;2022-10-26T04:19:05;15.40;99.90
8824;DHT22;4448;50.904;4.694;2022-10-26T04:21:31;15.10;99.90
8824;DHT22;4448;50.904;4.694;2022-10-26T04:24:00;15.30;99.90
8824;DHT22;4448;50.904;4.694;2022-10-26T04:26:26;15.30;99.90
8824;DHT22;4448;50.904;4.694;2022-10-26T04:28:52;15.20;99.90
8824;DHT22;4448;50.904;4.694;2022-10-26T04:31:18;15.20;99.90
8824;DHT22;4448;50.904;4.694;2022-10-26T04:33:43;15.30;99.90
8824;DHT22;4448;50.904;4.694;2022-10-26T04:36:09;15.40;99.90
8824;DHT22;4448;50.904;4.694;2022-10-26T04:38:35;15.40;99.90
8824;DHT22;4448;50.904;4.694;2022-10-26T04:41:00;15.30;99.90
8824;DHT22;4448;50.904;4.694;2022-10-26T04:43:26;15.60;99.90
8824;DHT22;4448;50.904;4.694;2022-10-26T04:45:56;15.40;99.90
8824;DHT22;4448;50.904;4.694;2022-10-26T04:48:22;15.30;99.90
8824;DHT22;4448;50.904;4.694;2022-10-26T04:50:48;15.40;99.90
8824;DHT22;4448;50.904;4.694;2022-10-26T04:53:14;15.60;99.90
8824;DHT22;4448;50.904;4.694;2022-10-26T04:55:40;15.40;99.90
8824;DHT22;4448;50.904;4.694;2022-10-26T04:58:06;15.30;99.90
8824;DHT22;4448;50.904;4.694;2022-10-26T05:00:32;15.60;99.90
8824;DHT22;4448;50.904;4.694;2022-10-26T05:03:02;15.50;99.90
8824;DHT22;4448;50.904;4.694;2022-10-26T05:05:29;15.40;99.90
8824;DHT22;4448;50.904;4.694;2022-10-26T05:07:56;15.30;99.90
8824;DHT22;4448;50.904;4.694;2022-10-26T05:10:23;15.60;99.90
8824;DHT22;4448;50.904;4.694;2022-10-26T05:12:50;15.30;99.90
8824;DHT22;4448;50.904;4.694;2022-10-26T05:15:16;15.50;99.90
8824;DHT22;4448;50.904;4.694;2022-10-26T05:17:42;15.20;99.90
8824;DHT22;4448;50.904;4.694;2022-10-26T05:20:08;15.30;99.90
8824;DHT22;4448;50.904;4.694;2022-10-26T05:22:37;15.30;99.90
8824;DHT22;4448;50.904;4.694;2022-10-26T05:25:05;15.40;99.90
8824;DHT22;4448;50.904;4.694;2022-10-26T05:27:31;15.40;99.90
8824;DHT22;4448;50.904;4.694;2022-10-26T05:29:56;15.30;99.90
8824;DHT22;4448;50.904;4.694;2022-10-26T05:32:22;15.60;99.90
8824;DHT22;4448;50.904;4.694;2022-10-26T05:34:49;15.50;99.90
8824;DHT22;4448;50.904;4.694;2022-10-26T05:37:15;15.40;99.90
8824;DHT22;4448;50.904;4.694;2022-10-26T05:39:41;15.40;99.90
8824;DHT22;4448;50.904;4.694;2022-10-26T05:42:08;15.60;99.90
8824;DHT22;4448;50.904;4.694;2022-10-26T05:44:33;15.40;99.90
8824;DHT22;4448;50.904;4.694;2022-10-26T05:46:59;15.40;99.90
8824;DHT22;4448;50.904;4.694;2022-10-26T05:49:24;15.30;99.90
8824;DHT22;4448;50.904;4.694;2022-10-26T05:51:50;15.30;99.90
8824;DHT22;4448;50.904;4.694;2022-10-26T05:54:16;15.20;99.90
8824;DHT22;4448;50.904;4.694;2022-10-26T05:56:41;15.30;99.90
8824;DHT22;4448;50.904;4.694;2022-10-26T05:59:12;15.20;99.90
8824;DHT22;4448;50.904;4.694;2022-10-26T06:01:56;15.50;99.90
8824;DHT22;4448;50.904;4.694;2022-10-26T06:04:34;15.20;99.90
8824;DHT22;4448;50.904;4.694;2022-10-26T06:07:04;15.20;99.90
8824;DHT22;4448;50.904;4.694;2022-10-26T06:09:34;15.00;99.90
8824;DHT22;4448;50.904;4.694;2022-10-26T06:12:00;15.10;99.90
8824;DHT22;4448;50.904;4.694;2022-10-26T06:14:26;15.00;99.90
8824;DHT22;4448;50.904;4.694;2022-10-26T06:17:10;15.20;99.90
8824;DHT22;4448;50.904;4.694;2022-10-26T06:22:49;15.00;99.90
8824;DHT22;4448;50.904;4.694;2022-10-26T06:28:19;15.10;99.90
8824;DHT22;4448;50.904;4.694;2022-10-26T06:30:47;14.90;99.90
8824;DHT22;4448;50.904;4.694;2022-10-26T06:33:13;14.80;99.90
8824;DHT22;4448;50.904;4.694;2022-10-26T06:38:13;14.90;99.90
8824;DHT22;4448;50.904;4.694;2022-10-26T06:40:42;14.90;99.90
8824;DHT22;4448;50.904;4.694;2022-10-26T06:43:19;15.00;99.90
8824;DHT22;4448;50.904;4.694;2022-10-26T06:45:51;15.00;99.90
8824;DHT22;4448;50.904;4.694;2022-10-26T06:48:21;15.20;99.90
8824;DHT22;4448;50.904;4.694;2022-10-26T06:50:51;15.10;99.90
8824;DHT22;4448;50.904;4.694;2022-10-26T06:53:30;15.40;99.90
8824;DHT22;4448;50.904;4.694;2022-10-26T06:55:58;16.20;99.90
8824;DHT22;4448;50.904;4.694;2022-10-26T06:58:28;17.00;99.90
8824;DHT22;4448;50.904;4.694;2022-10-26T07:00:55;17.60;99.90
8824;DHT22;4448;50.904;4.694;2022-10-26T07:03:21;17.60;99.90
8824;DHT22;4448;50.904;4.694;2022-10-26T07:05:47;18.00;99.90
8824;DHT22;4448;50.904;4.694;2022-10-26T07:08:13;18.40;99.90
8824;DHT22;4448;50.904;4.694;2022-10-26T07:10:39;18.70;99.90
8824;DHT22;4448;50.904;4.694;2022-10-26T07:13:07;18.80;99.90
8824;DHT22;4448;50.904;4.694;2022-10-26T07:15:34;18.70;99.90
8824;DHT22;4448;50.904;4.694;2022-10-26T07:18:02;18.70;99.90
8824;DHT22;4448;50.904;4.694;2022-10-26T07:20:31;18.30;99.90
8824;DHT22;4448;50.904;4.694;2022-10-26T07:22:57;17.90;99.90
8824;DHT22;4448;50.904;4.694;2022-10-26T07:25:23;18.20;99.90
8824;DHT22;4448;50.904;4.694;2022-10-26T07:27:49;18.70;99.90
8824;DHT22;4448;50.904;4.694;2022-10-26T07:30:15;18.70;99.90
8824;DHT22;4448;50.904;4.694;2022-10-26T07:32:40;19.20;99.90
8824;DHT22;4448;50.904;4.694;2022-10-26T07:35:07;19.30;99.90
8824;DHT22;4448;50.904;4.694;2022-10-26T07:37:32;19.40;99.90
8824;DHT22;4448;50.904;4.694;2022-10-26T07:39:58;19.80;99.90
8824;DHT22;4448;50.904;4.694;2022-10-26T07:42:24;20.10;99.90
8824;DHT22;4448;50.904;4.694;2022-10-26T07:44:49;20.10;99.90
8824;DHT22;4448;50.904;4.694;2022-10-26T07:47:15;19.80;99.90
8824;DHT22;4448;50.904;4.694;2022-10-26T07:49:41;19.60;99.90
8824;DHT22;4448;50.904;4.694;2022-10-26T07:52:07;19.30;99.90
8824;DHT22;4448;50.904;4.694;2022-10-26T07:54:33;19.40;99.90
8824;DHT22;4448;50.904;4.694;2022-10-26T07:56:59;19.50;99.90
8824;DHT22;4448;50.904;4.694;2022-10-26T07:59:25;19.20;99.90
8824;DHT22;4448;50.904;4.694;2022-10-26T08:01:51;19.40;99.90
8824;DHT22;4448;50.904;4.694;2022-10-26T08:04:17;19.60;99.90
8824;DHT22;4448;50.904;4.694;2022-10-26T08:06:43;19.50;99.90
8824;DHT22;4448;50.904;4.694;2022-10-26T08:09:10;19.50;99.90
8824;DHT22;4448;50.904;4.694;2022-10-26T08:11:35;19.50;99.90
8824;DHT22;4448;50.904;4.694;2022-10-26T08:14:02;19.60;99.90
8824;DHT22;4448;50.904;4.694;2022-10-26T08:16:28;19.40;99.90
8824;DHT22;4448;50.904;4.694;2022-10-26T08:18:53;19.60;99.90
8824;DHT22;4448;50.904;4.694;2022-10-26T08:21:19;19.50;99.90
8824;DHT22;4448;50.904;4.694;2022-10-26T08:23:45;19.40;99.90
8824;DHT22;4448;50.904;4.694;2022-10-26T08:26:11;19.40;99.90
8824;DHT22;4448;50.904;4.694;2022-10-26T08:28:37;19.40;99.90
8824;DHT22;4448;50.904;4.694;2022-10-26T08:31:03;19.50;99.90
8824;DHT22;4448;50.904;4.694;2022-10-26T08:33:30;19.50;99.90
8824;DHT22;4448;50.904;4.694;2022-10-26T08:36:01;19.50;99.90
8824;DHT22;4448;50.904;4.694;2022-10-26T08:38:27;19.70;99.90
8824;DHT22;4448;50.904;4.694;2022-10-26T08:40:53;19.80;99.90
8824;DHT22;4448;50.904;4.694;2022-10-26T08:43:28;20.00;99.90
8824;DHT22;4448;50.904;4.694;2022-10-26T08:48:51;20.00;99.90
8824;DHT22;4448;50.904;4.694;2022-10-26T08:51:22;20.10;99.90
8824;DHT22;4448;50.904;4.694;2022-10-26T08:56:34;20.50;99.90
8824;DHT22;4448;50.904;4.694;2022-10-26T08:59:28;20.80;99.90
8824;DHT22;4448;50.904;4.694;2022-10-26T09:01:53;20.80;99.90
8824;DHT22;4448;50.904;4.694;2022-10-26T09:04:25;20.90;99.90
8824;DHT22;4448;50.904;4.694;2022-10-26T09:09:38;21.40;99.90
8824;DHT22;4448;50.904;4.694;2022-10-26T09:15:27;21.30;99.90
8824;DHT22;4448;50.904;4.694;2022-10-26T09:18:16;21.30;99.90
8824;DHT22;4448;50.904;4.694;2022-10-26T09:21:01;21.40;99.90
8824;DHT22;4448;50.904;4.694;2022-10-26T09:26:28;21.40;99.90
8824;DHT22;4448;50.904;4.694;2022-10-26T09:28:57;21.50;99.90
8824;DHT22;4448;50.904;4.694;2022-10-26T09:31:25;21.50;99.90
8824;DHT22;4448;50.904;4.694;2022-10-26T09:33:52;21.10;99.90
8824;DHT22;4448;50.904;4.694;2022-10-26T09:36:21;21.20;99.90
8824;DHT22;4448;50.904;4.694;2022-10-26T09:39:00;21.30;99.90
8824;DHT22;4448;50.904;4.694;2022-10-26T09:41:44;21.00;99.90
8824;DHT22;4448;50.904;4.694;2022-10-26T09:44:37;21.40;99.90
8824;DHT22;4448;50.904;4.694;2022-10-26T09:47:32;21.60;99.90
8824;DHT22;4448;50.904;4.694;2022-10-26T09:50:17;21.30;99.90
8824;DHT22;4448;50.904;4.694;2022-10-26T09:52:44;21.70;99.90
8824;DHT22;4448;50.904;4.694;2022-10-26T09:55:11;21.40;99.90
8824;DHT22;4448;50.904;4.694;2022-10-26T09:57:42;21.40;99.90
8824;DHT22;4448;50.904;4.694;2022-10-26T10:00:17;21.70;99.90
8824;DHT22;4448;50.904;4.694;2022-10-26T10:02:46;22.00;99.90
8824;DHT22;4448;50.904;4.694;2022-10-26T10:05:24;22.10;99.90
8824;DHT22;4448;50.904;4.694;2022-10-26T10:07:51;22.10;99.90
8824;DHT22;4448;50.904;4.694;2022-10-26T10:10:20;22.00;99.90
8824;DHT22;4448;50.904;4.694;2022-10-26T10:12:48;21.90;99.90
8824;DHT22;4448;50.904;4.694;2022-10-26T10:15:23;21.70;99.90
8824;DHT22;4448;50.904;4.694;2022-10-26T10:17:54;21.80;99.90
8824;DHT22;4448;50.904;4.694;2022-10-26T10:20:30;21.70;99.90
8824;DHT22;4448;50.904;4.694;2022-10-26T10:22:58;21.60;99.90
8824;DHT22;4448;50.904;4.694;2022-10-26T10:25:41;21.50;99.90
8824;DHT22;4448;50.904;4.694;2022-10-26T10:28:25;21.20;99.90
8824;DHT22;4448;50.904;4.694;2022-10-26T10:30:52;21.30;99.90
8824;DHT22;4448;50.904;4.694;2022-10-26T10:33:20;21.40;99.90
8824;DHT22;4448;50.904;4.694;2022-10-26T10:35:49;21.40;99.90
8824;DHT22;4448;50.904;4.694;2022-10-26T10:38:18;20.90;99.90
8824;DHT22;4448;50.904;4.694;2022-10-26T10:40:58;21.00;99.90
8824;DHT22;4448;50.904;4.694;2022-10-26T10:43:25;20.80;99.90
8824;DHT22;4448;50.904;4.694;2022-10-26T10:45:54;21.00;99.90
8824;DHT22;4448;50.904;4.694;2022-10-26T10:48:26;21.10;99.90
8824;DHT22;4448;50.904;4.694;2022-10-26T10:50:59;21.00;99.90
8824;DHT22;4448;50.904;4.694;2022-10-26T10:53:35;21.00;99.90
8824;DHT22;4448;50.904;4.694;2022-10-26T10:58:36;20.60;99.90
8824;DHT22;4448;50.904;4.694;2022-10-26T11:01:03;20.70;99.90
8824;DHT22;4448;50.904;4.694;2022-10-26T11:06:25;20.70;99.90
8824;DHT22;4448;50.904;4.694;2022-10-26T11:09:01;20.60;99.90
8824;DHT22;4448;50.904;4.694;2022-10-26T11:14:56;20.50;99.90
8824;DHT22;4448;50.904;4.694;2022-10-26T11:17:30;20.60;99.90
8824;DHT22;4448;50.904;4.694;2022-10-26T11:20:00;20.40;99.90
8824;DHT22;4448;50.904;4.694;2022-10-26T11:22:35;20.30;99.90
8824;DHT22;4448;50.904;4.694;2022-10-26T11:25:27;20.50;99.90
8824;DHT22;4448;50.904;4.694;2022-10-26T11:28:18;20.50;99.90
8824;DHT22;4448;50.904;4.694;2022-10-26T11:30:54;20.50;99.90
8824;DHT22;4448;50.904;4.694;2022-10-26T11:33:25;20.60;99.90
8824;DHT22;4448;50.904;4.694;2022-10-26T11:35:59;20.40;99.90
8824;DHT22;4448;50.904;4.694;2022-10-26T11:38:47;20.40;99.90
8824;DHT22;4448;50.904;4.694;2022-10-26T11:41:25;20.30;99.90
8824;DHT22;4448;50.904;4.694;2022-10-26T11:44:17;20.50;99.90
8824;DHT22;4448;50.904;4.694;2022-10-26T11:46:48;20.30;99.90
8824;DHT22;4448;50.904;4.694;2022-10-26T11:52:10;20.70;99.90
8824;DHT22;4448;50.904;4.694;2022-10-26T11:57:18;20.60;99.90
8824;DHT22;4448;50.904;4.694;2022-10-26T11:59:54;20.70;99.90
8824;DHT22;4448;50.904;4.694;2022-10-26T12:02:23;20.80;99.90
8824;DHT22;4448;50.904;4.694;2022-10-26T12:05:00;20.80;99.90
8824;DHT22;4448;50.904;4.694;2022-10-26T12:07:33;20.60;99.90
8824;DHT22;4448;50.904;4.694;2022-10-26T12:10:02;20.80;99.90
8824;DHT22;4448;50.904;4.694;2022-10-26T12:12:49;20.70;99.90
8824;DHT22;4448;50.904;4.694;2022-10-26T12:18:33;20.70;99.90
8824;DHT22;4448;50.904;4.694;2022-10-26T12:21:03;20.70;99.90
8824;DHT22;4448;50.904;4.694;2022-10-26T12:23:34;20.70;99.90
8824;DHT22;4448;50.904;4.694;2022-10-26T12:34:03;21.80;99.90
8824;DHT22;4448;50.904;4.694;2022-10-26T12:50:01;20.70;99.90
8824;DHT22;4448;50.904;4.694;2022-10-26T12:52:46;20.80;99.90
8824;DHT22;4448;50.904;4.694;2022-10-26T12:55:19;20.80;99.90
8824;DHT22;4448;50.904;4.694;2022-10-26T13:00:26;21.00;99.90
8824;DHT22;4448;50.904;4.694;2022-10-26T13:03:25;21.00;99.90
8824;DHT22;4448;50.904;4.694;2022-10-26T13:06:19;21.10;99.90
8824;DHT22;4448;50.904;4.694;2022-10-26T13:08:55;21.30;99.90
8824;DHT22;4448;50.904;4.694;2022-10-26T13:11:30;21.30;99.90
8824;DHT22;4448;50.904;4.694;2022-10-26T13:13:59;21.40;99.90
8824;DHT22;4448;50.904;4.694;2022-10-26T13:16:27;21.40;99.90
8824;DHT22;4448;50.904;4.694;2022-10-26T13:18:53;21.60;99.90
8824;DHT22;4448;50.904;4.694;2022-10-26T13:21:21;21.80;99.90
8824;DHT22;4448;50.904;4.694;2022-10-26T13:26:21;22.30;99.90
8824;DHT22;4448;50.904;4.694;2022-10-26T13:28:53;22.10;99.90
8824;DHT22;4448;50.904;4.694;2022-10-26T13:34:15;22.40;99.90
8824;DHT22;4448;50.904;4.694;2022-10-26T13:39:25;22.10;99.90
8824;DHT22;4448;50.904;4.694;2022-10-26T13:41:53;22.00;99.90
8824;DHT22;4448;50.904;4.694;2022-10-26T13:47:29;21.90;99.90
8824;DHT22;4448;50.904;4.694;2022-10-26T13:50:03;21.80;99.90
8824;DHT22;4448;50.904;4.694;2022-10-26T13:52:35;21.80;99.90
8824;DHT22;4448;50.904;4.694;2022-10-26T14:01:09;22.20;99.90
8824;DHT22;4448;50.904;4.694;2022-10-26T14:03:37;22.40;99.90
8824;DHT22;4448;50.904;4.694;2022-10-26T14:08:35;22.60;99.90
8824;DHT22;4448;50.904;4.694;2022-10-26T14:11:02;22.50;99.90
8824;DHT22;4448;50.904;4.694;2022-10-26T14:13:27;22.60;99.90
8824;DHT22;4448;50.904;4.694;2022-10-26T14:15:55;22.60;99.90
8824;DHT22;4448;50.904;4.694;2022-10-26T14:18:28;22.40;99.90
8824;DHT22;4448;50.904;4.694;2022-10-26T14:21:04;22.50;99.90
8824;DHT22;4448;50.904;4.694;2022-10-26T14:25:58;22.40;99.90
8824;DHT22;4448;50.904;4.694;2022-10-26T14:28:36;22.30;99.90
8824;DHT22;4448;50.904;4.694;2022-10-26T14:31:19;22.40;99.90
8824;DHT22;4448;50.904;4.694;2022-10-26T14:33:45;21.20;99.90
8824;DHT22;4448;50.904;4.694;2022-10-26T14:36:11;21.80;99.90
8824;DHT22;4448;50.904;4.694;2022-10-26T14:38:50;21.60;99.90
8824;DHT22;4448;50.904;4.694;2022-10-26T14:41:18;21.50;99.90
8824;DHT22;4448;50.904;4.694;2022-10-26T14:43:44;21.30;99.90
8824;DHT22;4448;50.904;4.694;2022-10-26T14:46:16;21.10;99.90
8824;DHT22;4448;50.904;4.694;2022-10-26T14:48:56;21.00;99.90
8824;DHT22;4448;50.904;4.694;2022-10-26T14:51:27;21.20;99.90
8824;DHT22;4448;50.904;4.694;2022-10-26T14:53:56;20.90;99.90
8824;DHT22;4448;50.904;4.694;2022-10-26T14:59:19;20.90;99.90
8824;DHT22;4448;50.904;4.694;2022-10-26T15:07:05;20.60;99.90
8824;DHT22;4448;50.904;4.694;2022-10-26T15:09:44;20.80;99.90
8824;DHT22;4448;50.904;4.694;2022-10-26T15:12:35;20.90;99.90
8824;DHT22;4448;50.904;4.694;2022-10-26T15:17:46;21.00;99.90
8824;DHT22;4448;50.904;4.694;2022-10-26T15:20:17;20.90;99.90
8824;DHT22;4448;50.904;4.694;2022-10-26T15:22:52;20.90;99.90
8824;DHT22;4448;50.904;4.694;2022-10-26T15:25:21;20.80;99.90
8824;DHT22;4448;50.904;4.694;2022-10-26T15:27:48;20.70;99.90
8824;DHT22;4448;50.904;4.694;2022-10-26T15:30:24;20.80;99.90
8824;DHT22;4448;50.904;4.694;2022-10-26T15:32:52;20.70;99.90
8824;DHT22;4448;50.904;4.694;2022-10-26T15:37:44;20.60;99.90
8824;DHT22;4448;50.904;4.694;2022-10-26T15:40:11;20.60;99.90
8824;DHT22;4448;50.904;4.694;2022-10-26T15:42:39;20.50;99.90
8824;DHT22;4448;50.904;4.694;2022-10-26T15:45:20;20.50;99.90
8824;DHT22;4448;50.904;4.694;2022-10-26T15:47:47;20.30;99.90
8824;DHT22;4448;50.904;4.694;2022-10-26T15:50:16;20.30;99.90
8824;DHT22;4448;50.904;4.694;2022-10-26T15:52:43;20.30;99.90
8824;DHT22;4448;50.904;4.694;2022-10-26T15:55:09;20.30;99.90
8824;DHT22;4448;50.904;4.694;2022-10-26T15:57:35;20.20;99.90
8824;DHT22;4448;50.904;4.694;2022-10-26T16:00:04;20.20;99.90
8824;DHT22;4448;50.904;4.694;2022-10-26T16:02:41;20.10;99.90
8824;DHT22;4448;50.904;4.694;2022-10-26T16:05:07;20.10;99.90
8824;DHT22;4448;50.904;4.694;2022-10-26T16:07:33;19.90;99.90
8824;DHT22;4448;50.904;4.694;2022-10-26T16:09:58;19.90;99.90
8824;DHT22;4448;50.904;4.694;2022-10-26T16:12:24;19.80;99.90
8824;DHT22;4448;50.904;4.694;2022-10-26T16:14:50;19.80;99.90
8824;DHT22;4448;50.904;4.694;2022-10-26T16:17:15;19.60;99.90
8824;DHT22;4448;50.904;4.694;2022-10-26T16:19:41;19.70;99.90
8824;DHT22;4448;50.904;4.694;2022-10-26T16:22:08;19.60;99.90
8824;DHT22;4448;50.904;4.694;2022-10-26T16:24:34;19.60;99.90
8824;DHT22;4448;50.904;4.694;2022-10-26T16:27:00;19.60;99.90
8824;DHT22;4448;50.904;4.694;2022-10-26T16:29:25;19.50;99.90
8824;DHT22;4448;50.904;4.694;2022-10-26T16:31:51;19.50;99.90
8824;DHT22;4448;50.904;4.694;2022-10-26T16:34:17;19.60;99.90
8824;DHT22;4448;50.904;4.694;2022-10-26T16:36:42;19.50;99.90
8824;DHT22;4448;50.904;4.694;2022-10-26T16:39:10;19.50;99.90
8824;DHT22;4448;50.904;4.694;2022-10-26T16:41:36;19.30;99.90
8824;DHT22;4448;50.904;4.694;2022-10-26T16:44:02;19.30;99.90
8824;DHT22;4448;50.904;4.694;2022-10-26T16:46:28;19.10;99.90
8824;DHT22;4448;50.904;4.694;2022-10-26T16:48:53;19.10;99.90
8824;DHT22;4448;50.904;4.694;2022-10-26T16:51:24;19.10;99.90
8824;DHT22;4448;50.904;4.694;2022-10-26T16:53:54;18.90;99.90
8824;DHT22;4448;50.904;4.694;2022-10-26T16:56:25;18.80;99.90
8824;DHT22;4448;50.904;4.694;2022-10-26T16:58:51;18.90;99.90
8824;DHT22;4448;50.904;4.694;2022-10-26T17:01:18;18.80;99.90
8824;DHT22;4448;50.904;4.694;2022-10-26T17:03:45;18.80;99.90
8824;DHT22;4448;50.904;4.694;2022-10-26T17:06:11;18.90;99.90
8824;DHT22;4448;50.904;4.694;2022-10-26T17:08:38;18.90;99.90
8824;DHT22;4448;50.904;4.694;2022-10-26T17:11:06;18.70;99.90
8824;DHT22;4448;50.904;4.694;2022-10-26T17:13:33;18.70;99.90
8824;DHT22;4448;50.904;4.694;2022-10-26T17:16:15;18.90;99.90
8824;DHT22;4448;50.904;4.694;2022-10-26T17:18:41;18.60;99.90
8824;DHT22;4448;50.904;4.694;2022-10-26T17:21:08;18.70;99.90
8824;DHT22;4448;50.904;4.694;2022-10-26T17:23:34;18.60;99.90
8824;DHT22;4448;50.904;4.694;2022-10-26T17:26:02;18.90;99.90
8824;DHT22;4448;50.904;4.694;2022-10-26T17:28:29;18.30;99.90
8824;DHT22;4448;50.904;4.694;2022-10-26T17:33:32;18.60;99.90
8824;DHT22;4448;50.904;4.694;2022-10-26T17:35:58;18.50;99.90
8824;DHT22;4448;50.904;4.694;2022-10-26T17:38:23;18.50;99.90
8824;DHT22;4448;50.904;4.694;2022-10-26T17:40:49;18.50;99.90
8824;DHT22;4448;50.904;4.694;2022-10-26T17:43:14;18.50;99.90
8824;DHT22;4448;50.904;4.694;2022-10-26T17:45:40;18.50;99.90
8824;DHT22;4448;50.904;4.694;2022-10-26T17:48:06;18.60;99.90
8824;DHT22;4448;50.904;4.694;2022-10-26T17:50:31;18.60;99.90
8824;DHT22;4448;50.904;4.694;2022-10-26T17:52:57;18.40;99.90
8824;DHT22;4448;50.904;4.694;2022-10-26T17:55:23;18.30;99.90
8824;DHT22;4448;50.904;4.694;2022-10-26T17:57:48;18.30;99.90
8824;DHT22;4448;50.904;4.694;2022-10-26T18:00:14;18.20;99.90
8824;DHT22;4448;50.904;4.694;2022-10-26T18:02:40;18.40;99.90
8824;DHT22;4448;50.904;4.694;2022-10-26T18:05:06;18.10;99.90
8824;DHT22;4448;50.904;4.694;2022-10-26T18:07:32;18.00;99.90
8824;DHT22;4448;50.904;4.694;2022-10-26T18:09:58;18.10;99.90
8824;DHT22;4448;50.904;4.694;2022-10-26T18:12:24;17.20;99.90
8824;DHT22;4448;50.904;4.694;2022-10-26T18:14:51;17.90;99.90
8824;DHT22;4448;50.904;4.694;2022-10-26T18:17:16;17.80;99.90
8824;DHT22;4448;50.904;4.694;2022-10-26T18:19:42;17.80;99.90
8824;DHT22;4448;50.904;4.694;2022-10-26T18:22:08;17.70;99.90
8824;DHT22;4448;50.904;4.694;2022-10-26T18:24:33;17.80;99.90
8824;DHT22;4448;50.904;4.694;2022-10-26T18:26:59;17.80;99.90
8824;DHT22;4448;50.904;4.694;2022-10-26T18:29:25;17.90;99.90